sensor_id;sensor_type;location;lat;lon;timestamp;pressure;altitude;pressure_sealevel;temperature;humidity
80869;BME280;70295;40.182;44.498;2023-07-13T00:00:24;90492.91;;;22.04;39.41816
80869;BME280;70295;40.182;44.498;2023-07-13T00:02:24;90495.06;;;22.05;39.48652
80869;BME280;70295;40.182;44.498;2023-07-13T00:04:24;90493.66;;;22.11;39.46894
80869;BME280;70295;40.182;44.498;2023-07-13T00:06:24;90495.41;;;22.18;39.44062
80869;BME280;70295;40.182;44.498;2023-07-13T00:08:23;90494.63;;;22.22;39.41133
80869;BME280;70295;40.182;44.498;2023-07-13T00:10:23;90496.42;;;22.25;39.38008
80869;BME280;70295;40.182;44.498;2023-07-13T00:12:25;90495.94;;;22.27;39.33613
80869;BME280;70295;40.182;44.498;2023-07-13T00:14:24;90498.7;;;22.3;39.28144
80869;BME280;70295;40.182;44.498;2023-07-13T00:16:24;90501.53;;;22.31;39.1457
80869;BME280;70295;40.182;44.498;2023-07-13T00:18:23;90503.39;;;22.31;39.0207
80869;BME280;70295;40.182;44.498;2023-07-13T00:20:24;90503.47;;;22.29;39.08711
80869;BME280;70295;40.182;44.498;2023-07-13T00:22:24;90504.44;;;22.28;39.21211
80869;BME280;70295;40.182;44.498;2023-07-13T00:24:23;90506.79;;;22.28;39.24629
80869;BME280;70295;40.182;44.498;2023-07-13T00:26:24;90507.66;;;22.25;39.43672
80869;BME280;70295;40.182;44.498;2023-07-13T00:28:23;90508.91;;;22.23;39.21797
80869;BME280;70295;40.182;44.498;2023-07-13T00:30:24;90510.16;;;22.2;39.18086
80869;BME280;70295;40.182;44.498;2023-07-13T00:32:24;90509.74;;;22.14;39.18769
80869;BME280;70295;40.182;44.498;2023-07-13T00:34:23;90509.27;;;22.1;39.22969
80869;BME280;70295;40.182;44.498;2023-07-13T00:36:23;90511.73;;;22.12;39.28828
80869;BME280;70295;40.182;44.498;2023-07-13T00:38:24;90515.02;;;22.14;39.24531
80869;BME280;70295;40.182;44.498;2023-07-13T00:40:23;90514.99;;;22.18;39.2707
80869;BME280;70295;40.182;44.498;2023-07-13T00:42:24;90519.34;;;22.18;39.44062
80869;BME280;70295;40.182;44.498;2023-07-13T00:44:23;90514.45;;;22.18;39.36152
80869;BME280;70295;40.182;44.498;2023-07-13T00:46:29;90519.91;;;22.11;39.32148
80869;BME280;70295;40.182;44.498;2023-07-13T00:48:25;90519.3;;;22.06;39.28242
80869;BME280;70295;40.182;44.498;2023-07-13T00:50:24;90517.32;;;22.02;39.18867
80869;BME280;70295;40.182;44.498;2023-07-13T00:52:24;90522.04;;;21.99;38.96894
80869;BME280;70295;40.182;44.498;2023-07-13T00:54:26;90519.25;;;21.88;38.83418
80869;BME280;70295;40.182;44.498;2023-07-13T00:56:24;90520.05;;;21.8;38.8498
80869;BME280;70295;40.182;44.498;2023-07-13T00:58:24;90516;;;21.74;38.9123
80869;BME280;70295;40.182;44.498;2023-07-13T01:00:23;90519.34;;;21.72;39.00215
80869;BME280;70295;40.182;44.498;2023-07-13T01:02:24;90517.86;;;21.73;38.90059
80869;BME280;70295;40.182;44.498;2023-07-13T01:04:24;90519.34;;;21.76;38.82344
80869;BME280;70295;40.182;44.498;2023-07-13T01:06:23;90521.81;;;21.74;38.87812
80869;BME280;70295;40.182;44.498;2023-07-13T01:08:23;90525.14;;;21.72;38.87715
80869;BME280;70295;40.182;44.498;2023-07-13T01:10:24;90530.98;;;21.72;38.80879
80869;BME280;70295;40.182;44.498;2023-07-13T01:12:23;90531.3;;;21.72;38.76289
80869;BME280;70295;40.182;44.498;2023-07-13T01:14:23;90528.03;;;21.73;38.66133
80869;BME280;70295;40.182;44.498;2023-07-13T01:16:25;90529.53;;;21.72;38.49043
80869;BME280;70295;40.182;44.498;2023-07-13T01:18:25;90531.77;;;21.71;38.43281
80869;BME280;70295;40.182;44.498;2023-07-13T01:20:24;90536.36;;;21.7;38.41914
80869;BME280;70295;40.182;44.498;2023-07-13T01:22:23;90535.75;;;21.71;38.38691
80869;BME280;70295;40.182;44.498;2023-07-13T01:24:23;90531.77;;;21.71;38.40937
80869;BME280;70295;40.182;44.498;2023-07-13T01:26:24;90531.16;;;21.69;38.4416
80869;BME280;70295;40.182;44.498;2023-07-13T01:28:24;90528.08;;;21.69;38.48652
80869;BME280;70295;40.182;44.498;2023-07-13T01:30:23;90530.69;;;21.67;38.42891
80869;BME280;70295;40.182;44.498;2023-07-13T01:32:24;90529.48;;;21.66;38.47383
80869;BME280;70295;40.182;44.498;2023-07-13T01:34:23;90529.01;;;21.65;38.42598
80869;BME280;70295;40.182;44.498;2023-07-13T01:36:23;90527.14;;;21.62;38.40156
80869;BME280;70295;40.182;44.498;2023-07-13T01:38:24;90529.7;;;21.58;38.50117
80869;BME280;70295;40.182;44.498;2023-07-13T01:40:24;90531.2;;;21.5;38.8459
80869;BME280;70295;40.182;44.498;2023-07-13T01:42:23;90535.31;;;21.48;39.08223
80869;BME280;70295;40.182;44.498;2023-07-13T01:44:23;90539.52;;;21.48;39.18379
80869;BME280;70295;40.182;44.498;2023-07-13T01:46:23;90541.09;;;21.49;39.3332
80869;BME280;70295;40.182;44.498;2023-07-13T01:48:23;90542.42;;;21.48;39.30879
80869;BME280;70295;40.182;44.498;2023-07-13T01:50:24;90541.32;;;21.45;39.51094
80869;BME280;70295;40.182;44.498;2023-07-13T01:52:24;90542.66;;;21.43;39.54316
80869;BME280;70295;40.182;44.498;2023-07-13T01:54:23;90543.8;;;21.42;39.57734
80869;BME280;70295;40.182;44.498;2023-07-13T01:56:23;90546.03;;;21.41;39.49629
80869;BME280;70295;40.182;44.498;2023-07-13T01:58:23;90548.92;;;21.41;39.47383
80869;BME280;70295;40.182;44.498;2023-07-13T02:00:23;90550.16;;;21.41;39.4748
80869;BME280;70295;40.182;44.498;2023-07-13T02:02:23;90549.97;;;21.42;39.48555
80869;BME280;70295;40.182;44.498;2023-07-13T02:04:23;90553.52;;;21.43;39.4875
80869;BME280;70295;40.182;44.498;2023-07-13T02:06:23;90557.82;;;21.44;39.6125
80869;BME280;70295;40.182;44.498;2023-07-13T02:08:24;90556.78;;;21.43;39.6125
80869;BME280;70295;40.182;44.498;2023-07-13T02:10:24;90563.86;;;21.43;39.78242
80869;BME280;70295;40.182;44.498;2023-07-13T02:12:23;90562.27;;;21.42;39.8957
80869;BME280;70295;40.182;44.498;2023-07-13T02:14:23;90561.5;;;21.43;39.92988
80869;BME280;70295;40.182;44.498;2023-07-13T02:16:24;90560.48;;;21.41;39.78144
80869;BME280;70295;40.182;44.498;2023-07-13T02:18:23;90561.57;;;21.41;39.65644
80869;BME280;70295;40.182;44.498;2023-07-13T02:20:24;90563.62;;;21.4;39.60957
80869;BME280;70295;40.182;44.498;2023-07-13T02:22:23;90567.16;;;21.39;39.67598
80869;BME280;70295;40.182;44.498;2023-07-13T02:24:23;90570.55;;;21.36;39.99238
80869;BME280;70295;40.182;44.498;2023-07-13T02:26:23;90568.59;;;21.36;40.13887
80869;BME280;70295;40.182;44.498;2023-07-13T02:28:23;90568.97;;;21.35;39.91133
80869;BME280;70295;40.182;44.498;2023-07-13T02:30:23;90575.24;;;21.37;39.84492
80869;BME280;70295;40.182;44.498;2023-07-13T02:32:23;90573.51;;;21.38;39.63008
80869;BME280;70295;40.182;44.498;2023-07-13T02:34:23;90576.75;;;21.35;39.51387
80869;BME280;70295;40.182;44.498;2023-07-13T02:36:23;90580.41;;;21.31;39.71504
80869;BME280;70295;40.182;44.498;2023-07-13T02:38:23;90581.27;;;21.29;39.92793
80869;BME280;70295;40.182;44.498;2023-07-13T02:40:23;90581.39;;;21.26;40.0168
80869;BME280;70295;40.182;44.498;2023-07-13T02:42:24;90580.73;;;21.25;40.0959
80869;BME280;70295;40.182;44.498;2023-07-13T02:44:23;90579.75;;;21.27;40.13008
80869;BME280;70295;40.182;44.498;2023-07-13T02:46:24;90579.27;;;21.29;40.25801
80869;BME280;70295;40.182;44.498;2023-07-13T02:48:23;90575.31;;;21.32;40.25996
80869;BME280;70295;40.182;44.498;2023-07-13T02:50:23;90575.12;;;21.32;40.10273
80869;BME280;70295;40.182;44.498;2023-07-13T02:52:23;90575.66;;;21.32;39.90937
80869;BME280;70295;40.182;44.498;2023-07-13T02:54:23;90578.75;;;21.32;39.80586
80869;BME280;70295;40.182;44.498;2023-07-13T02:56:24;90575.91;;;21.34;39.75215
80869;BME280;70295;40.182;44.498;2023-07-13T02:58:23;90581.59;;;21.4;39.72285
80869;BME280;70295;40.182;44.498;2023-07-13T03:00:23;90583.5;;;21.48;39.92402
80869;BME280;70295;40.182;44.498;2023-07-13T03:02:23;90586.93;;;21.59;39.87715
80869;BME280;70295;40.182;44.498;2023-07-13T03:04:23;90582.41;;;21.76;39.85762
80869;BME280;70295;40.182;44.498;2023-07-13T03:06:23;90582.38;;;22;39.61836
80869;BME280;70295;40.182;44.498;2023-07-13T03:08:23;90577.78;;;22.24;39.23066
80869;BME280;70295;40.182;44.498;2023-07-13T03:10:24;90577.78;;;22.47;38.56758
80869;BME280;70295;40.182;44.498;2023-07-13T03:12:24;90573.55;;;22.67;38.15254
80869;BME280;70295;40.182;44.498;2023-07-13T03:14:24;90566.17;;;22.84;37.87129
80869;BME280;70295;40.182;44.498;2023-07-13T03:16:23;90574.39;;;23.09;37.5959
80869;BME280;70295;40.182;44.498;2023-07-13T03:18:24;90576.89;;;23.31;37.12324
80869;BME280;70295;40.182;44.498;2023-07-13T03:20:23;90578.91;;;23.51;36.62715
80869;BME280;70295;40.182;44.498;2023-07-13T03:22:23;90577.79;;;23.64;36.29414
80869;BME280;70295;40.182;44.498;2023-07-13T03:24:23;90579.72;;;23.71;36.19746
80869;BME280;70295;40.182;44.498;2023-07-13T03:26:23;90581.42;;;23.76;36.1457
80869;BME280;70295;40.182;44.498;2023-07-13T03:28:23;90578.53;;;23.82;36.21894
80869;BME280;70295;40.182;44.498;2023-07-13T03:30:23;90577.83;;;23.96;35.98945
80869;BME280;70295;40.182;44.498;2023-07-13T03:32:23;90578.94;;;24.16;35.79023
80869;BME280;70295;40.182;44.498;2023-07-13T03:34:24;90580.47;;;24.41;35.37422
80869;BME280;70295;40.182;44.498;2023-07-13T03:36:25;90578.54;;;24.65;34.99336
80869;BME280;70295;40.182;44.498;2023-07-13T03:38:23;90577.38;;;24.88;34.79414
80869;BME280;70295;40.182;44.498;2023-07-13T03:40:23;90578.03;;;25.06;34.3957
80869;BME280;70295;40.182;44.498;2023-07-13T03:42:23;90577.95;;;25.29;34.17305
80869;BME280;70295;40.182;44.498;2023-07-13T03:44:23;90575.41;;;25.51;34.0168
80869;BME280;70295;40.182;44.498;2023-07-13T03:46:23;90576.17;;;25.64;33.80879
80869;BME280;70295;40.182;44.498;2023-07-13T03:48:23;90577.83;;;25.77;33.50898
80869;BME280;70295;40.182;44.498;2023-07-13T03:50:23;90581.22;;;25.94;33.15449
80869;BME280;70295;40.182;44.498;2023-07-13T03:52:23;90581.52;;;26.07;32.72676
80869;BME280;70295;40.182;44.498;2023-07-13T03:54:23;90586.06;;;26.1;32.76387
80869;BME280;70295;40.182;44.498;2023-07-13T03:56:23;90591.66;;;26.24;32.78633
80869;BME280;70295;40.182;44.498;2023-07-13T04:00:23;90587.91;;;26.59;32.50117
80869;BME280;70295;40.182;44.498;2023-07-13T04:02:23;90590.84;;;26.76;32.27168
80869;BME280;70295;40.182;44.498;2023-07-13T04:04:23;90594.17;;;26.93;32.18086
80869;BME280;70295;40.182;44.498;2023-07-13T04:06:25;90596.14;;;27.14;31.89668
80869;BME280;70295;40.182;44.498;2023-07-13T04:08:23;90598.89;;;27.33;31.44844
80869;BME280;70295;40.182;44.498;2023-07-13T04:10:23;90599.7;;;27.47;31.1125
80869;BME280;70295;40.182;44.498;2023-07-13T04:12:23;90600.27;;;27.62;30.94941
80869;BME280;70295;40.182;44.498;2023-07-13T04:14:23;90596.37;;;27.79;30.71992
80869;BME280;70295;40.182;44.498;2023-07-13T04:16:23;90601.33;;;27.95;30.55781
80869;BME280;70295;40.182;44.498;2023-07-13T04:18:23;90602.14;;;28.11;30.24434
80869;BME280;70295;40.182;44.498;2023-07-13T04:20:24;90603.33;;;28.26;29.83906
80869;BME280;70295;40.182;44.498;2023-07-13T04:22:23;90606.38;;;28.37;29.50996
80869;BME280;70295;40.182;44.498;2023-07-13T04:24:23;90604.19;;;28.43;29.31855
80869;BME280;70295;40.182;44.498;2023-07-13T04:26:23;90609.83;;;28.46;29.14668
80869;BME280;70295;40.182;44.498;2023-07-13T04:28:23;90606.97;;;28.43;29.07441
80869;BME280;70295;40.182;44.498;2023-07-13T04:30:23;90609.62;;;28.44;29.11055
80869;BME280;70295;40.182;44.498;2023-07-13T04:32:23;90611.02;;;28.5;29.06758
80869;BME280;70295;40.182;44.498;2023-07-13T04:34:23;90614.19;;;28.56;28.93281
80869;BME280;70295;40.182;44.498;2023-07-13T04:36:24;90615.41;;;28.61;28.84394
80869;BME280;70295;40.182;44.498;2023-07-13T04:38:24;90615.91;;;28.69;28.73262
80869;BME280;70295;40.182;44.498;2023-07-13T04:40:23;90612.81;;;28.78;28.48457
80869;BME280;70295;40.182;44.498;2023-07-13T04:42:23;90614.53;;;28.86;28.45527
80869;BME280;70295;40.182;44.498;2023-07-13T04:44:23;90614.5;;;28.96;28.24043
80869;BME280;70295;40.182;44.498;2023-07-13T04:46:23;90614.19;;;29.02;28.11738
80869;BME280;70295;40.182;44.498;2023-07-13T04:48:23;90612.25;;;29.1;28.15742
80869;BME280;70295;40.182;44.498;2023-07-13T04:50:23;90619.7;;;29.15;28.18379
80869;BME280;70295;40.182;44.498;2023-07-13T04:52:23;90617.97;;;29.19;28.20918
80869;BME280;70295;40.182;44.498;2023-07-13T04:54:23;90620.42;;;29.25;28.36348
80869;BME280;70295;40.182;44.498;2023-07-13T04:56:23;90623.79;;;29.28;28.41328
80869;BME280;70295;40.182;44.498;2023-07-13T04:58:24;90625.09;;;29.33;28.55488
80869;BME280;70295;40.182;44.498;2023-07-13T05:00:23;90625.56;;;29.4;28.44355
80869;BME280;70295;40.182;44.498;2023-07-13T05:02:23;90626.75;;;29.41;28.47871
80869;BME280;70295;40.182;44.498;2023-07-13T05:04:23;90629.23;;;29.44;28.38887
80869;BME280;70295;40.182;44.498;2023-07-13T05:06:23;90626.09;;;29.51;28.37031
80869;BME280;70295;40.182;44.498;2023-07-13T05:08:23;90626.88;;;29.59;28.0959
80869;BME280;70295;40.182;44.498;2023-07-13T05:10:23;90626.77;;;29.7;27.89473
80869;BME280;70295;40.182;44.498;2023-07-13T05:12:23;90625.93;;;29.78;27.68965
80869;BME280;70295;40.182;44.498;2023-07-13T05:14:23;90623.38;;;29.86;27.70723
80869;BME280;70295;40.182;44.498;2023-07-13T05:16:23;90626.46;;;29.93;27.68867
80869;BME280;70295;40.182;44.498;2023-07-13T05:18:23;90623.35;;;30;27.55293
80869;BME280;70295;40.182;44.498;2023-07-13T05:20:23;90624.88;;;30.03;27.43867
80869;BME280;70295;40.182;44.498;2023-07-13T05:22:23;90624.56;;;30.07;27.39473
80869;BME280;70295;40.182;44.498;2023-07-13T05:24:23;90622.56;;;30.13;27.24824
80869;BME280;70295;40.182;44.498;2023-07-13T05:26:23;90628.5;;;30.19;27.19355
80869;BME280;70295;40.182;44.498;2023-07-13T05:28:23;90623.77;;;30.27;26.87226
80869;BME280;70295;40.182;44.498;2023-07-13T05:30:23;90623.2;;;30.36;26.66914
80869;BME280;70295;40.182;44.498;2023-07-13T05:32:23;90624.08;;;30.45;26.4416
80869;BME280;70295;40.182;44.498;2023-07-13T05:34:23;90620.5;;;30.52;26.13105
80869;BME280;70295;40.182;44.498;2023-07-13T05:36:23;90618.61;;;30.59;25.91426
80869;BME280;70295;40.182;44.498;2023-07-13T05:38:23;90619.53;;;30.63;25.84687
80869;BME280;70295;40.182;44.498;2023-07-13T05:40:23;90617.69;;;30.68;25.74531
80869;BME280;70295;40.182;44.498;2023-07-13T05:42:23;90619.67;;;30.73;25.47969
80869;BME280;70295;40.182;44.498;2023-07-13T05:44:23;90617.58;;;30.78;25.45918
80869;BME280;70295;40.182;44.498;2023-07-13T05:46:25;90616.64;;;30.78;25.38984
80869;BME280;70295;40.182;44.498;2023-07-13T05:48:23;90620.22;;;30.75;25.56269
80869;BME280;70295;40.182;44.498;2023-07-13T05:50:23;90615.33;;;30.82;25.47383
80869;BME280;70295;40.182;44.498;2023-07-13T05:52:23;90619.35;;;30.89;25.38496
80869;BME280;70295;40.182;44.498;2023-07-13T05:54:23;90622.52;;;30.94;25.29414
80869;BME280;70295;40.182;44.498;2023-07-13T05:56:23;90621.48;;;30.98;25.21504
80869;BME280;70295;40.182;44.498;2023-07-13T05:58:23;90622.03;;;31;24.925
80869;BME280;70295;40.182;44.498;2023-07-13T06:00:23;90623.17;;;30.95;25.0041
80869;BME280;70295;40.182;44.498;2023-07-13T06:02:23;90623.6;;;30.99;25.18086
80869;BME280;70295;40.182;44.498;2023-07-13T06:04:23;90624.03;;;31.08;25.12812
80869;BME280;70295;40.182;44.498;2023-07-13T06:06:23;90620.4;;;31.16;25.10859
80869;BME280;70295;40.182;44.498;2023-07-13T06:08:23;90624.43;;;31.18;25.02851
80869;BME280;70295;40.182;44.498;2023-07-13T06:10:23;90623.92;;;31.2;25.07637
80869;BME280;70295;40.182;44.498;2023-07-13T06:12:23;90616.3;;;31.25;24.79902
80869;BME280;70295;40.182;44.498;2023-07-13T06:14:23;90616.02;;;31.18;24.85371
80869;BME280;70295;40.182;44.498;2023-07-13T06:16:23;90612.63;;;31.23;24.84492
80869;BME280;70295;40.182;44.498;2023-07-13T06:18:23;90616.24;;;31.32;24.80391
80869;BME280;70295;40.182;44.498;2023-07-13T06:20:23;90621.95;;;31.42;24.77461
80869;BME280;70295;40.182;44.498;2023-07-13T06:22:23;90621.06;;;31.42;24.5168
80869;BME280;70295;40.182;44.498;2023-07-13T06:24:23;90619.61;;;31.4;24.41133
80869;BME280;70295;40.182;44.498;2023-07-13T06:26:23;90618.16;;;31.46;24.21601
80869;BME280;70295;40.182;44.498;2023-07-13T06:28:23;90611.68;;;31.5;24.26484
80869;BME280;70295;40.182;44.498;2023-07-13T06:30:23;90612.89;;;31.49;24.22969
80869;BME280;70295;40.182;44.498;2023-07-13T06:32:23;90617.28;;;31.39;24.43379
80869;BME280;70295;40.182;44.498;2023-07-13T06:34:23;90614.92;;;31.37;24.46699
80869;BME280;70295;40.182;44.498;2023-07-13T06:36:23;90612.83;;;31.44;24.35469
80869;BME280;70295;40.182;44.498;2023-07-13T06:38:23;90609.3;;;31.5;24.3
80869;BME280;70295;40.182;44.498;2023-07-13T06:40:23;90613.22;;;31.53;24.38398
80869;BME280;70295;40.182;44.498;2023-07-13T06:42:23;90615.06;;;31.57;24.32734
80869;BME280;70295;40.182;44.498;2023-07-13T06:44:23;90615.38;;;31.64;24.27266
80869;BME280;70295;40.182;44.498;2023-07-13T06:46:23;90610.97;;;31.7;23.97285
80869;BME280;70295;40.182;44.498;2023-07-13T06:48:23;90613.11;;;31.75;23.94062
80869;BME280;70295;40.182;44.498;2023-07-13T06:50:23;90608.44;;;31.84;23.68769
80869;BME280;70295;40.182;44.498;2023-07-13T06:52:23;90612.98;;;31.9;23.41133
80869;BME280;70295;40.182;44.498;2023-07-13T06:54:23;90606.45;;;31.95;23.29707
80869;BME280;70295;40.182;44.498;2023-07-13T06:56:23;90606.66;;;31.97;23.40351
80869;BME280;70295;40.182;44.498;2023-07-13T06:58:23;90604.34;;;31.96;23.40254
80869;BME280;70295;40.182;44.498;2023-07-13T07:00:23;90597.27;;;31.97;23.46211
80869;BME280;70295;40.182;44.498;2023-07-13T07:02:23;90597.77;;;31.98;23.47383
80869;BME280;70295;40.182;44.498;2023-07-13T07:04:23;90602.41;;;31.99;23.25215
80869;BME280;70295;40.182;44.498;2023-07-13T07:06:23;90602.3;;;32;23.19453
80869;BME280;70295;40.182;44.498;2023-07-13T07:08:23;90596.31;;;31.97;23.3332
80869;BME280;70295;40.182;44.498;2023-07-13T07:10:23;90594.28;;;31.99;23.07734
80869;BME280;70295;40.182;44.498;2023-07-13T07:12:23;90591.44;;;31.94;23.05098
80869;BME280;70295;40.182;44.498;2023-07-13T07:14:23;90586.96;;;31.91;23.0373
80869;BME280;70295;40.182;44.498;2023-07-13T07:16:24;90587.45;;;31.9;22.9084
80869;BME280;70295;40.182;44.498;2023-07-13T07:18:23;90587.88;;;31.85;22.68379
80869;BME280;70295;40.182;44.498;2023-07-13T07:20:23;90587.52;;;31.73;22.5373
80869;BME280;70295;40.182;44.498;2023-07-13T07:22:23;90579.91;;;31.57;22.69258
80869;BME280;70295;40.182;44.498;2023-07-13T07:24:23;90573.88;;;31.49;22.75898
80869;BME280;70295;40.182;44.498;2023-07-13T07:26:23;90563.13;;;31.46;22.80391
80869;BME280;70295;40.182;44.498;2023-07-13T07:28:23;90568.95;;;31.36;22.88008
80869;BME280;70295;40.182;44.498;2023-07-13T07:30:23;90565.84;;;31.32;22.84297
80869;BME280;70295;40.182;44.498;2023-07-13T07:32:23;90567.01;;;31.23;22.89668
80869;BME280;70295;40.182;44.498;2023-07-13T07:34:23;90559.75;;;31.2;23.16328
80869;BME280;70295;40.182;44.498;2023-07-13T07:36:23;90560;;;31.19;23.1623
80869;BME280;70295;40.182;44.498;2023-07-13T07:38:23;90559.13;;;31.14;23.12519
80869;BME280;70295;40.182;44.498;2023-07-13T07:40:23;90556.39;;;31.14;23.16035
80869;BME280;70295;40.182;44.498;2023-07-13T07:42:23;90548.44;;;31.15;23.09101
80869;BME280;70295;40.182;44.498;2023-07-13T07:44:23;90548.48;;;31.16;23.2082
80869;BME280;70295;40.182;44.498;2023-07-13T07:46:23;90550.38;;;31.18;23.17402
80869;BME280;70295;40.182;44.498;2023-07-13T07:48:23;90549.8;;;31.18;22.92891
80869;BME280;70295;40.182;44.498;2023-07-13T07:50:23;90546.27;;;31.14;22.70527
80869;BME280;70295;40.182;44.498;2023-07-13T07:52:23;90545.52;;;31.1;22.50508
80869;BME280;70295;40.182;44.498;2023-07-13T07:54:23;90542.47;;;31.05;22.43281
80869;BME280;70295;40.182;44.498;2023-07-13T07:56:23;90541.48;;;31.02;22.57051
80869;BME280;70295;40.182;44.498;2023-07-13T07:58:23;90533.27;;;31.03;22.53633
80869;BME280;70295;40.182;44.498;2023-07-13T08:00:23;90535.2;;;31.02;22.69941
80869;BME280;70295;40.182;44.498;2023-07-13T08:02:24;90529.84;;;31.07;22.7834
80869;BME280;70295;40.182;44.498;2023-07-13T08:04:23;90529.84;;;31.11;22.50508
80869;BME280;70295;40.182;44.498;2023-07-13T08:06:23;90526.39;;;31.14;22.50703
80869;BME280;70295;40.182;44.498;2023-07-13T08:08:23;90527.86;;;31.1;22.18965
80869;BME280;70295;40.182;44.498;2023-07-13T08:10:23;90528.47;;;31.02;22.11543
80869;BME280;70295;40.182;44.498;2023-07-13T08:12:23;90524.26;;;31.01;22.75703
80869;BME280;70295;40.182;44.498;2023-07-13T08:14:23;90519.94;;;31.04;22.82832
80869;BME280;70295;40.182;44.498;2023-07-13T08:16:23;90517.9;;;31.05;22.45527
80869;BME280;70295;40.182;44.498;2023-07-13T08:18:23;90509.73;;;30.89;22.42402
80869;BME280;70295;40.182;44.498;2023-07-13T08:20:23;90506.84;;;30.84;22.77168
80869;BME280;70295;40.182;44.498;2023-07-13T08:22:23;90505.92;;;30.84;22.98164
80869;BME280;70295;40.182;44.498;2023-07-13T08:24:23;90498.73;;;30.85;22.80684
80869;BME280;70295;40.182;44.498;2023-07-13T08:26:23;90492.3;;;30.81;22.85078
80869;BME280;70295;40.182;44.498;2023-07-13T08:28:24;90490.63;;;30.79;22.87324
80869;BME280;70295;40.182;44.498;2023-07-13T08:30:23;90488.69;;;30.8;22.79219
80869;BME280;70295;40.182;44.498;2023-07-13T08:32:23;90488.46;;;30.81;22.93184
80869;BME280;70295;40.182;44.498;2023-07-13T08:34:23;90486.16;;;30.85;22.93476
80869;BME280;70295;40.182;44.498;2023-07-13T08:36:23;90481.84;;;30.86;23.01777
80869;BME280;70295;40.182;44.498;2023-07-13T08:38:23;90480.52;;;30.89;22.8791
80869;BME280;70295;40.182;44.498;2023-07-13T08:40:23;90479.06;;;30.89;22.57539
80869;BME280;70295;40.182;44.498;2023-07-13T08:44:27;90467.31;;;30.86;22.29414
80869;BME280;70295;40.182;44.498;2023-07-13T08:50:24;90459.38;;;30.91;22.36641
80869;BME280;70295;40.182;44.498;2023-07-13T08:54:26;90456.12;;;30.9;22.08613
80869;BME280;70295;40.182;44.498;2023-07-13T08:56:24;90448.7;;;30.91;22.09883
80869;BME280;70295;40.182;44.498;2023-07-13T08:58:23;90453.13;;;30.91;22.04023
80869;BME280;70295;40.182;44.498;2023-07-13T09:00:24;90453.38;;;30.9;22.03926
80869;BME280;70295;40.182;44.498;2023-07-13T09:04:25;90442.44;;;30.87;22.09687
80869;BME280;70295;40.182;44.498;2023-07-13T09:06:23;90443.2;;;30.89;22.03926
80869;BME280;70295;40.182;44.498;2023-07-13T09:08:27;90437.27;;;30.89;22.02754
80869;BME280;70295;40.182;44.498;2023-07-13T09:16:23;90430.81;;;30.7;22.02949
80869;BME280;70295;40.182;44.498;2023-07-13T09:20:25;90428.44;;;30.71;22.0998
80869;BME280;70295;40.182;44.498;2023-07-13T09:22:23;90430.92;;;30.7;21.9709
80869;BME280;70295;40.182;44.498;2023-07-13T09:26:24;90418.2;;;30.71;21.97187
80869;BME280;70295;40.182;44.498;2023-07-13T09:30:24;90414.16;;;30.71;21.96016
80869;BME280;70295;40.182;44.498;2023-07-13T09:32:23;90411.63;;;30.7;22.09883
80869;BME280;70295;40.182;44.498;2023-07-13T09:34:23;90402.72;;;30.71;22.28633
80869;BME280;70295;40.182;44.498;2023-07-13T09:38:23;90399.95;;;30.69;22.0168
80869;BME280;70295;40.182;44.498;2023-07-13T09:40:47;90395.3;;;30.64;22.0959
80869;BME280;70295;40.182;44.498;2023-07-13T09:42:23;90386.22;;;30.62;22.1418
80869;BME280;70295;40.182;44.498;2023-07-13T09:46:23;90384.52;;;30.69;22.1916
80869;BME280;70295;40.182;44.498;2023-07-13T09:48:23;90383.9;;;30.7;22.12226
80869;BME280;70295;40.182;44.498;2023-07-13T09:50:23;90383.53;;;30.7;22.11055
80869;BME280;70295;40.182;44.498;2023-07-13T09:52:23;90382.09;;;30.69;21.88887
80869;BME280;70295;40.182;44.498;2023-07-13T09:54:24;90377.35;;;30.69;21.87715
80869;BME280;70295;40.182;44.498;2023-07-13T09:56:24;90372.66;;;30.68;21.86543
80869;BME280;70295;40.182;44.498;2023-07-13T09:58:24;90362.98;;;30.67;21.88789
80869;BME280;70295;40.182;44.498;2023-07-13T10:00:25;90362.25;;;30.67;21.8293
80869;BME280;70295;40.182;44.498;2023-07-13T10:02:23;90362.21;;;30.66;21.68867
80869;BME280;70295;40.182;44.498;2023-07-13T10:04:27;90361.75;;;30.63;21.71113
80869;BME280;70295;40.182;44.498;2023-07-13T10:06:23;90356.98;;;30.63;21.69941
80869;BME280;70295;40.182;44.498;2023-07-13T10:10:23;90349.36;;;30.62;21.6291
80869;BME280;70295;40.182;44.498;2023-07-13T10:12:23;90343.83;;;30.62;21.83906
80869;BME280;70295;40.182;44.498;2023-07-13T10:14:23;90348.78;;;30.64;21.60664
80869;BME280;70295;40.182;44.498;2023-07-13T10:18:23;90343.1;;;30.64;21.69941
80869;BME280;70295;40.182;44.498;2023-07-13T10:20:23;90334.09;;;30.64;21.97969
80869;BME280;70295;40.182;44.498;2023-07-13T10:32:23;90316.63;;;30.56;21.5793
80869;BME280;70295;40.182;44.498;2023-07-13T10:34:23;90313.52;;;30.54;21.65937
80869;BME280;70295;40.182;44.498;2023-07-13T10:38:23;90327.1;;;30.5;21.62324
80869;BME280;70295;40.182;44.498;2023-07-13T10:40:33;90322.72;;;30.49;21.63398
80869;BME280;70295;40.182;44.498;2023-07-13T10:46:23;90319.09;;;30.47;21.85469
80869;BME280;70295;40.182;44.498;2023-07-13T10:48:23;90314.84;;;30.47;21.72676
80869;BME280;70295;40.182;44.498;2023-07-13T10:50:23;90306.3;;;30.46;21.63301
80869;BME280;70295;40.182;44.498;2023-07-13T10:56:28;90302.03;;;30.43;21.45625
80869;BME280;70295;40.182;44.498;2023-07-13T10:58:24;90295.36;;;30.41;21.49043